Angoon, AK (99820)

12:19 PM AKDT on July 24, 2016 (GMT -0800)
Angoon | | Change Station

Elev 0 ft 57.50 °N, 134.59 °W | Updated 23 minutes ago

Mostly Cloudy
Mostly Cloudy
59 °F
Feels Like 59 °F
N
0
Wind Variable Wind from North

Today
High -- | Low -- °F
--% Chance of Precip.
Yesterday
High -- | Low -- °F
Precip. -- in
Pressure 29.95 in
Visibility 10.0 miles
Clouds Scattered Clouds 2300 ft
Mostly Cloudy 2900 ft
Mostly Cloudy 9000 ft
Dew Point 54 °F
Humidity 83%
Rainfall 0.06 in
Snow Depth Not available.
4:40 AM 9:28 PM
Waning Gibbous, 73% visible
METAR PAGN 241956Z AUTO 00000KT 10SM SCT023 BKN029 BKN090 15/12 A2998 RMK AO2 SLP141 T01500122
Pressure 29.95 in
Visibility 10.0 miles
Clouds Scattered Clouds 2300 ft
Mostly Cloudy 2900 ft
Mostly Cloudy 9000 ft
Dew Point 54 °F
Humidity 83%
Rainfall 0.06 in
Snow Depth Not available.
4:40 AM 9:28 PM
Waning Gibbous, 73% visible
METAR PAGN 241956Z AUTO 00000KT 10SM SCT023 BKN029 BKN090 15/12 A2998 RMK AO2 SLP141 T01500122

10-Day Weather Forecast

Almanac

Astronomy

Jul. 24, 2016 Rise Set
Actual Time
Civil Twilight
Nautical Twilight
Astronomical Twilight
Moon
Length of Visible Light
Length of Day
Tomorrow will be .
, % of the Moon is Illuminated

Today's Extremes

State Highs State Lows

Community

WunderPhotos

Upload Photos

1,927,181 photos uploaded!

WunderBlog® & News

Nearby

Air Quality

  Air Quality AQ Index Pollutant
Not available.

Snow Depth

Station Depth Elevation

Earthquake Activity

City Distance Mag. Time & Date
Minimum magnitude displayed is 2.5.

Coastal Water Temperatures

Place Temperature

Stations

Nearby Weather Stations

Station Location Temp. Windchill Dew Point Humidity Wind Precip. Elev Updated Type
                   

Watches & Warnings

There are currently no watches in effect.